Terminal Aerodrome Forecast
Issued by NWS

Home | Current Version | Previous Version | Text Only | Print | Product List | Glossary Off
Versions: 1 2 3 4 5 6 7 8 9 10 11 12 13

732
FTUS43 KMPX 021739
TAFAXN
TAF
KAXN 021739Z 0218/0318 24005KT P6SM SCT120
     FM030000 23003KT P6SM SKC
     FM031200 27008KT P6SM SCT250
     FM031500 28014G22KT P6SM SCT250=

USA.gov is the U.S. government's official web portal to all federal, state and local government web resources and services.